createdAt,value
2022-10-18T00:00:48.526Z,101567.41
2022-10-18T00:01:50.984Z,101560.28
2022-10-18T00:02:53.170Z,101564.16
2022-10-18T00:03:55.362Z,101564.28
2022-10-18T00:04:57.507Z,101569.69
2022-10-18T00:06:00.137Z,101569.97
2022-10-18T00:07:02.439Z,101563.69
2022-10-18T00:08:04.745Z,101563.13
2022-10-18T00:09:07.039Z,101562.06
2022-10-18T00:10:10.109Z,101564.72
2022-10-18T00:11:12.414Z,101566.63
2022-10-18T00:12:14.725Z,101569.25
2022-10-18T00:13:17.442Z,101571.22
2022-10-18T00:14:19.783Z,101566.31
2022-10-18T00:15:21.938Z,101570.91
2022-10-18T00:16:24.105Z,101573.78
2022-10-18T00:17:29.447Z,101576.75
2022-10-18T00:18:32.389Z,101574.16
2022-10-18T00:19:34.669Z,101574.97
2022-10-18T00:20:36.881Z,101570.50
2022-10-18T00:21:39.169Z,101574.06
2022-10-18T00:22:42.233Z,101572.47
2022-10-18T00:23:45.836Z,101570.97
2022-10-18T00:24:48.259Z,101577.16
2022-10-18T00:26:02.183Z,101573.50
2022-10-18T00:27:04.564Z,101576.72
2022-10-18T00:28:06.780Z,101572.06
2022-10-18T00:29:15.004Z,101579.44
2022-10-18T00:30:17.179Z,101580.44
2022-10-18T00:31:27.825Z,101581.03
2022-10-18T00:32:30.203Z,101582.88
2022-10-18T00:33:32.702Z,101580.44
2022-10-18T00:34:35.041Z,101584.97
2022-10-18T00:35:37.173Z,101581.50
2022-10-18T00:36:39.688Z,101579.69
2022-10-18T00:37:41.830Z,101580.53
2022-10-18T00:38:44.999Z,101583.06
2022-10-18T00:39:47.438Z,101577.50
2022-10-18T00:40:49.599Z,101582.53
2022-10-18T00:41:52.361Z,101585.47
2022-10-18T00:42:54.499Z,101584.97
2022-10-18T00:44:06.982Z,101583.75
2022-10-18T00:45:21.700Z,101582.41
2022-10-18T00:46:25.477Z,101585.09
2022-10-18T00:47:40.156Z,101589.59
2022-10-18T00:48:42.434Z,101579.00
2022-10-18T00:49:52.792Z,101581.72
2022-10-18T00:50:55.214Z,101588.91
2022-10-18T00:52:05.083Z,101583.56
2022-10-18T00:53:12.969Z,101587.13
2022-10-18T00:54:17.079Z,101588.09
2022-10-18T00:55:20.704Z,101591.59
2022-10-18T00:56:23.133Z,101588.16
2022-10-18T00:57:25.960Z,101584.72
2022-10-18T00:58:29.129Z,101586.69
2022-10-18T00:59:31.393Z,101589.53
2022-10-18T01:00:35.040Z,101582.38
2022-10-18T01:01:37.270Z,101588.63
2022-10-18T01:02:42.014Z,101582.59
2022-10-18T01:03:44.886Z,101584.41
2022-10-18T01:04:47.967Z,101584.41
2022-10-18T01:05:50.371Z,101583.63
2022-10-18T01:07:21.383Z,101575.50
2022-10-18T01:08:28.783Z,101575.63
2022-10-18T01:09:36.659Z,101578.22
2022-10-18T01:10:45.967Z,101589.72
2022-10-18T01:12:23.449Z,101593.22
2022-10-18T01:14:11.789Z,101586.50
2022-10-18T01:15:29.701Z,101586.66
2022-10-18T01:16:42.532Z,101590.38
2022-10-18T01:18:21.010Z,101594.78
2022-10-18T01:19:47.973Z,101592.94
2022-10-18T01:21:13.184Z,101584.69
2022-10-18T01:23:00.576Z,101586.50
2022-10-18T01:24:19.184Z,101585.88
2022-10-18T01:25:30.089Z,101586.78
2022-10-18T01:26:38.568Z,101587.75
2022-10-18T01:27:46.928Z,101588.75
2022-10-18T01:29:24.680Z,101588.84
2022-10-18T01:30:38.129Z,101584.31
2022-10-18T01:31:46.901Z,101587.88
2022-10-18T01:32:52.996Z,101581.44
2022-10-18T01:34:00.002Z,101592.47
2022-10-18T01:35:08.842Z,101587.88
2022-10-18T01:36:28.687Z,101588.91
2022-10-18T01:37:33.086Z,101586.34
2022-10-18T01:38:38.253Z,101586.50
2022-10-18T01:39:43.493Z,101591.16
2022-10-18T01:40:50.379Z,101587.69
2022-10-18T01:41:54.606Z,101585.06
2022-10-18T01:42:56.985Z,101587.75
2022-10-18T01:44:02.088Z,101584.94
2022-10-18T01:45:04.867Z,101576.84
2022-10-18T01:46:09.330Z,101582.97
2022-10-18T01:47:13.819Z,101582.06
2022-10-18T01:48:16.669Z,101588.38
2022-10-18T01:49:19.175Z,101587.34
2022-10-18T01:50:35.006Z,101588.38
2022-10-18T01:51:37.432Z,101588.38
2022-10-18T01:52:52.138Z,101582.06
2022-10-18T01:53:54.739Z,101578.56
2022-10-18T01:54:59.473Z,101579.53
2022-10-18T01:56:10.521Z,101583.16
2022-10-18T01:57:22.944Z,101582.03
2022-10-18T01:58:37.283Z,101585.59
2022-10-18T02:00:04.025Z,101582.03
2022-10-18T02:01:31.345Z,101583.44
2022-10-18T02:02:51.186Z,101585.34
2022-10-18T02:03:58.086Z,101584.38
2022-10-18T02:05:35.169Z,101582.75
2022-10-18T02:06:45.104Z,101579.38
2022-10-18T02:08:23.259Z,101578.50
2022-10-18T02:09:36.228Z,101580.19
2022-10-18T02:10:46.570Z,101583.97
2022-10-18T02:11:54.030Z,101584.78
2022-10-18T02:12:57.566Z,101582.88
2022-10-18T02:14:12.982Z,101582.06
2022-10-18T02:15:19.960Z,101579.38
2022-10-18T02:16:35.776Z,101584.19
2022-10-18T02:17:40.292Z,101579.66
2022-10-18T02:18:49.367Z,101578.84
2022-10-18T02:19:54.842Z,101576.16
2022-10-18T02:20:59.031Z,101578.84
2022-10-18T02:22:02.140Z,101577.91
2022-10-18T02:23:07.439Z,101578.66
2022-10-18T02:24:12.918Z,101583.03
2022-10-18T02:25:21.272Z,101582.25
2022-10-18T02:26:23.958Z,101571.44
2022-10-18T02:27:26.233Z,101578.38
2022-10-18T02:28:28.654Z,101580.13
2022-10-18T02:29:32.059Z,101578.72
2022-10-18T02:30:52.729Z,101579.75
2022-10-18T02:32:09.434Z,101583.25
2022-10-18T02:33:22.146Z,101581.66
2022-10-18T02:34:35.248Z,101581.56
2022-10-18T02:35:45.026Z,101578.84
2022-10-18T02:36:58.263Z,101579.75
2022-10-18T02:38:01.758Z,101583.38
2022-10-18T02:39:11.605Z,101581.50
2022-10-18T02:40:15.250Z,101585.28
2022-10-18T02:41:27.979Z,101591.69
2022-10-18T02:42:35.875Z,101579.94
2022-10-18T02:43:38.211Z,101584.53
2022-10-18T02:44:40.670Z,101582.72
2022-10-18T02:45:43.027Z,101589.06
2022-10-18T02:46:46.716Z,101585.28
2022-10-18T02:47:49.076Z,101585.34
2022-10-18T02:48:51.358Z,101589.00
2022-10-18T02:49:53.683Z,101585.28
2022-10-18T02:50:56.002Z,101595.31
2022-10-18T02:51:58.447Z,101597.09
2022-10-18T02:53:00.775Z,101590.00
2022-10-18T02:54:03.607Z,101594.47
2022-10-18T02:55:09.417Z,101592.56
2022-10-18T02:56:11.687Z,101595.22
2022-10-18T02:57:14.032Z,101595.31
2022-10-18T02:58:16.297Z,101592.97
2022-10-18T02:59:18.648Z,101595.66
2022-10-18T03:00:20.989Z,101602.94
2022-10-18T03:01:24.428Z,101602.09
2022-10-18T03:02:27.069Z,101601.22
2022-10-18T03:03:29.261Z,101609.44
2022-10-18T03:04:31.615Z,101612.81
2022-10-18T03:05:33.816Z,101620.66
2022-10-18T03:06:36.293Z,101616.75
2022-10-18T03:07:38.617Z,101619.50
2022-10-18T03:08:40.838Z,101622.25
2022-10-18T03:09:43.152Z,101615.94
2022-10-18T03:10:46.315Z,101617.69
2022-10-18T03:11:48.660Z,101619.50
2022-10-18T03:12:50.834Z,101626.25
2022-10-18T03:13:53.165Z,101630.78
2022-10-18T03:14:55.320Z,101631.50
2022-10-18T03:15:57.639Z,101625.22
2022-10-18T03:16:59.942Z,101620.63
2022-10-18T03:18:02.104Z,101625.28
2022-10-18T03:19:04.439Z,101616.53
2022-10-18T03:20:07.162Z,101621.88
2022-10-18T03:21:10.433Z,101624.63
2022-10-18T03:22:12.724Z,101621.88
2022-10-18T03:23:14.867Z,101625.28
2022-10-18T03:24:17.236Z,101630.69
2022-10-18T03:25:19.513Z,101628.66
2022-10-18T03:26:21.817Z,101619.75
2022-10-18T03:27:24.332Z,101621.66
2022-10-18T03:28:26.783Z,101620.09
2022-10-18T03:29:29.009Z,101629.16
2022-10-18T03:30:31.270Z,101624.47
2022-10-18T03:31:33.939Z,101627.06
2022-10-18T03:32:36.436Z,101627.06
2022-10-18T03:33:38.856Z,101629.81
2022-10-18T03:34:41.030Z,101634.19
2022-10-18T03:35:43.400Z,101634.94
2022-10-18T03:36:45.590Z,101637.50
2022-10-18T03:37:48.207Z,101629.41
2022-10-18T03:38:50.437Z,101620.44
2022-10-18T03:39:52.634Z,101628.53
2022-10-18T03:40:54.901Z,101625.09
2022-10-18T03:41:57.143Z,101624.06
2022-10-18T03:42:59.631Z,101621.25
2022-10-18T03:44:01.868Z,101622.34
2022-10-18T03:45:04.915Z,101625.91
2022-10-18T03:46:07.281Z,101629.53
2022-10-18T03:47:09.466Z,101623.28
2022-10-18T03:48:11.909Z,101622.19
2022-10-18T03:49:14.262Z,101623.00
2022-10-18T03:50:16.509Z,101625.63
2022-10-18T03:51:18.706Z,101631.91
2022-10-18T03:52:21.031Z,101636.38
2022-10-18T03:53:23.225Z,101627.25
2022-10-18T03:54:25.530Z,101628.78
2022-10-18T03:55:27.881Z,101633.28
2022-10-18T03:56:30.073Z,101632.59
2022-10-18T03:57:32.410Z,101633.28
2022-10-18T03:59:41.677Z,101628.84
2022-10-18T04:00:43.998Z,101630.41
2022-10-18T04:01:46.176Z,101631.16
2022-10-18T04:02:52.017Z,101631.06
2022-10-18T04:03:57.200Z,101635.81
2022-10-18T04:04:59.401Z,101636.19
2022-10-18T04:06:03.462Z,101632.53
2022-10-18T04:07:05.617Z,101635.22
2022-10-18T04:08:08.199Z,101635.38
2022-10-18T04:09:10.506Z,101635.38
2022-10-18T04:10:12.925Z,101632.94
2022-10-18T04:11:15.307Z,101630.53
2022-10-18T04:12:17.599Z,101626.91
2022-10-18T04:13:19.933Z,101630.72
2022-10-18T04:14:22.191Z,101624.66
2022-10-18T04:15:24.450Z,101623.56
2022-10-18T04:16:26.914Z,101635.25
2022-10-18T04:17:29.392Z,101630.88
2022-10-18T04:18:32.232Z,101629.16
2022-10-18T04:19:34.458Z,101632.81
2022-10-18T04:20:36.817Z,101631.72
2022-10-18T04:21:39.148Z,101628.16
2022-10-18T04:22:41.464Z,101631.84
2022-10-18T04:23:44.001Z,101622.88
2022-10-18T04:24:46.157Z,101631.06
2022-10-18T04:25:48.328Z,101631.06
2022-10-18T04:26:51.454Z,101628.50
2022-10-18T04:27:53.781Z,101625.59
2022-10-18T04:28:55.979Z,101623.91
2022-10-18T04:29:58.323Z,101628.50
2022-10-18T04:31:01.120Z,101622.31
2022-10-18T04:32:03.545Z,101621.34
2022-10-18T04:33:05.963Z,101618.63
2022-10-18T04:34:09.008Z,101626.84
2022-10-18T04:35:11.702Z,101616.91
2022-10-18T04:36:13.871Z,101617.03
2022-10-18T04:37:16.079Z,101620.47
2022-10-18T04:38:19.923Z,101616.09
2022-10-18T04:39:22.104Z,101614.25
2022-10-18T04:40:24.435Z,101619.59
2022-10-18T04:41:26.582Z,101623.97
2022-10-18T04:42:28.736Z,101615.81
2022-10-18T04:43:31.334Z,101621.06
2022-10-18T04:44:34.423Z,101615.75
2022-10-18T04:45:36.673Z,101622.09
2022-10-18T04:46:38.820Z,101614.78
2022-10-18T04:47:41.140Z,101617.47
2022-10-18T04:48:43.556Z,101617.25
2022-10-18T04:49:45.711Z,101614.56
2022-10-18T04:50:49.783Z,101613.63
2022-10-18T04:51:51.965Z,101611.78
2022-10-18T04:52:54.270Z,101623.41
2022-10-18T04:53:56.755Z,101622.59
2022-10-18T04:54:58.952Z,101621.66
2022-10-18T04:56:01.259Z,101620.72
2022-10-18T04:57:03.924Z,101616.91
2022-10-18T04:58:06.082Z,101616.91
2022-10-18T04:59:08.649Z,101606.03
2022-10-18T05:00:11.322Z,101616.84
2022-10-18T05:01:13.618Z,101609.59
2022-10-18T05:02:15.808Z,101608.81
2022-10-18T05:03:18.268Z,101607.06
2022-10-18T05:04:20.587Z,101604.88
2022-10-18T05:05:23.198Z,101611.50
2022-10-18T05:06:27.214Z,101607.06
2022-10-18T05:07:29.391Z,101602.47
2022-10-18T05:08:33.748Z,101601.66
2022-10-18T05:09:35.971Z,101605.69
2022-10-18T05:10:38.428Z,101602.34
2022-10-18T05:11:40.634Z,101600.72
2022-10-18T05:12:43.822Z,101602.78
2022-10-18T05:13:48.622Z,101607.59
2022-10-18T05:14:53.315Z,101610.69
2022-10-18T05:15:55.918Z,101606.22
2022-10-18T05:16:58.354Z,101603.66
2022-10-18T05:18:00.541Z,101603.66
2022-10-18T05:19:05.251Z,101606.53
2022-10-18T05:20:07.775Z,101611.84
2022-10-18T05:21:10.707Z,101606.44
2022-10-18T05:22:12.877Z,101606.44
2022-10-18T05:23:15.087Z,101614.28
2022-10-18T05:24:17.555Z,101607.09
2022-10-18T05:25:19.728Z,101604.75
2022-10-18T05:26:22.029Z,101601.97
2022-10-18T05:27:24.189Z,101604.69
2022-10-18T05:28:42.153Z,101606.44
2022-10-18T05:29:44.622Z,101615.13
2022-10-18T05:30:46.825Z,101616.09
2022-10-18T05:31:49.621Z,101614.41
2022-10-18T05:32:51.794Z,101622.75
2022-10-18T05:33:54.101Z,101613.91
2022-10-18T05:34:56.626Z,101613.00
2022-10-18T05:35:59.530Z,101604.00
2022-10-18T05:37:01.704Z,101606.59
2022-10-18T05:38:06.180Z,101600.69
2022-10-18T05:39:08.365Z,101606.81
2022-10-18T05:40:11.259Z,101610.47
2022-10-18T05:41:13.880Z,101603.41
2022-10-18T05:42:16.160Z,101605.34
2022-10-18T05:43:18.403Z,101606.16
2022-10-18T05:44:21.662Z,101611.50
2022-10-18T05:45:23.836Z,101611.28
2022-10-18T05:46:26.110Z,101609.38
2022-10-18T05:47:28.333Z,101614.34
2022-10-18T05:48:31.165Z,101611.03
2022-10-18T05:49:33.504Z,101608.53
2022-10-18T05:50:38.141Z,101610.13
2022-10-18T05:51:42.764Z,101618.63
2022-10-18T05:52:44.994Z,101618.19
2022-10-18T05:53:47.587Z,101616.03
2022-10-18T05:54:49.917Z,101627.19
2022-10-18T05:55:52.246Z,101614.72
2022-10-18T05:56:54.457Z,101622.97
2022-10-18T05:57:56.906Z,101620.13
2022-10-18T05:58:59.060Z,101619.31
2022-10-18T06:00:01.528Z,101616.63
2022-10-18T06:01:13.912Z,101620.31
2022-10-18T06:02:16.343Z,101615.81
2022-10-18T06:03:18.730Z,101614.41
2022-10-18T06:04:21.250Z,101622.03
2022-10-18T06:05:23.583Z,101619.75
2022-10-18T06:06:25.783Z,101618.25
2022-10-18T06:07:27.951Z,101615.41
2022-10-18T06:08:30.335Z,101621.56
2022-10-18T06:09:32.515Z,101616.72
2022-10-18T06:10:34.838Z,101619.59
2022-10-18T06:11:37.349Z,101615.97
2022-10-18T06:12:39.627Z,101618.25
2022-10-18T06:13:43.607Z,101619.28
2022-10-18T06:14:45.795Z,101618.63
2022-10-18T06:15:48.136Z,101620.69
2022-10-18T06:16:50.577Z,101621.19
2022-10-18T06:17:52.747Z,101620.31
2022-10-18T06:18:57.318Z,101619.59
2022-10-18T06:19:59.527Z,101619.34
2022-10-18T06:21:02.179Z,101615.78
2022-10-18T06:22:04.857Z,101615.16
2022-10-18T06:23:07.019Z,101616.09
2022-10-18T06:24:09.233Z,101616.25
2022-10-18T06:25:11.715Z,101619.03
2022-10-18T06:26:13.867Z,101610.84
2022-10-18T06:27:16.272Z,101611.19
2022-10-18T06:28:18.463Z,101613.28
2022-10-18T06:29:20.603Z,101609.16
2022-10-18T06:30:23.088Z,101610.44
2022-10-18T06:31:25.357Z,101613.13
2022-10-18T06:32:27.561Z,101614.97
2022-10-18T06:33:31.406Z,101610.50
2022-10-18T06:34:34.087Z,101613.50
2022-10-18T06:35:36.568Z,101616.44
2022-10-18T06:36:38.745Z,101612.66
2022-10-18T06:38:48.745Z,101613.88
2022-10-18T06:39:50.890Z,101614.88
2022-10-18T06:40:54.294Z,101612.91
2022-10-18T06:41:56.471Z,101614.69
2022-10-18T06:43:19.587Z,101612.84
2022-10-18T06:44:23.198Z,101614.56
2022-10-18T06:45:25.628Z,101613.06
2022-10-18T06:46:27.834Z,101620.38
2022-10-18T06:47:30.046Z,101615.34
2022-10-18T06:48:32.935Z,101613.16
2022-10-18T06:49:35.224Z,101616.75
2022-10-18T06:50:37.897Z,101611.34
2022-10-18T06:51:40.777Z,101617.38
2022-10-18T06:52:43.519Z,101611.25
2022-10-18T06:53:59.060Z,101617.75
2022-10-18T06:55:09.201Z,101612.50
2022-10-18T06:56:13.513Z,101613.53
2022-10-18T06:57:15.668Z,101613.88
2022-10-18T06:58:18.082Z,101614.56
2022-10-18T06:59:20.207Z,101614.34
2022-10-18T07:00:22.547Z,101610.97
2022-10-18T07:01:24.750Z,101611.22
2022-10-18T07:02:26.982Z,101617.72
2022-10-18T07:03:29.451Z,101620.47
2022-10-18T07:04:31.654Z,101618.59
2022-10-18T07:06:41.156Z,101624.06
2022-10-18T07:07:43.389Z,101630.25
2022-10-18T07:08:47.322Z,101628.53
2022-10-18T07:09:49.476Z,101631.00
2022-10-18T07:10:53.369Z,101623.75
2022-10-18T07:11:55.492Z,101638.59
2022-10-18T07:13:13.538Z,101629.59
2022-10-18T07:14:19.931Z,101637.78
2022-10-18T07:15:24.045Z,101635.22
2022-10-18T07:16:26.623Z,101635.66
2022-10-18T07:17:29.050Z,101643.63
2022-10-18T07:18:33.141Z,101641.06
2022-10-18T07:19:35.496Z,101634.28
2022-10-18T07:20:37.819Z,101634.47
2022-10-18T07:21:40.100Z,101642.19
2022-10-18T07:22:42.272Z,101639.03
2022-10-18T07:23:48.481Z,101644.59
2022-10-18T07:24:50.991Z,101631.28
2022-10-18T07:25:53.155Z,101638.53
2022-10-18T07:26:55.509Z,101635.59
2022-10-18T07:27:57.734Z,101627.88
2022-10-18T07:29:08.752Z,101626.59
2022-10-18T07:30:11.559Z,101623.91
2022-10-18T07:31:14.211Z,101627.41
2022-10-18T07:32:16.554Z,101623.75
2022-10-18T07:33:20.695Z,101618.41
2022-10-18T07:34:22.887Z,101622.16
2022-10-18T07:35:25.053Z,101619.66
2022-10-18T07:36:27.284Z,101614.53
2022-10-18T07:37:30.533Z,101619.38
2022-10-18T07:38:32.953Z,101617.03
2022-10-18T07:39:35.100Z,101610.91
2022-10-18T07:40:37.235Z,101615.94
2022-10-18T07:41:39.844Z,101615.59
2022-10-18T07:42:42.618Z,101618.84
2022-10-18T07:43:48.836Z,101606.13
2022-10-18T07:44:51.154Z,101608.47
2022-10-18T07:45:54.841Z,101609.13
2022-10-18T07:46:57.158Z,101597.34
2022-10-18T07:47:59.543Z,101600.66
2022-10-18T07:49:01.756Z,101600.66
2022-10-18T07:50:03.947Z,101608.41
2022-10-18T07:51:06.725Z,101603.00
2022-10-18T07:52:09.165Z,101604.16
2022-10-18T07:53:11.304Z,101605.16
2022-10-18T07:54:13.528Z,101607.25
2022-10-18T07:55:15.831Z,101606.50
2022-10-18T07:56:21.275Z,101601.84
2022-10-18T07:57:24.002Z,101608.25
2022-10-18T07:58:26.538Z,101607.44
2022-10-18T07:59:28.681Z,101605.63
2022-10-18T08:00:31.081Z,101603.88
2022-10-18T08:01:34.367Z,101608.16
2022-10-18T08:02:36.815Z,101601.91
2022-10-18T08:03:39.110Z,101603.50
2022-10-18T08:04:41.616Z,101600.06
2022-10-18T08:05:43.933Z,101598.69
2022-10-18T08:06:46.252Z,101588.97
2022-10-18T08:07:48.571Z,101594.38
2022-10-18T08:08:50.784Z,101601.69
2022-10-18T08:09:52.994Z,101597.03
2022-10-18T08:10:55.828Z,101599.56
2022-10-18T08:11:58.021Z,101594.81
2022-10-18T08:13:00.434Z,101593.09
2022-10-18T08:14:02.634Z,101587.31
2022-10-18T08:15:05.233Z,101581.91
2022-10-18T08:16:10.207Z,101570.91
2022-10-18T08:17:12.507Z,101581.97
2022-10-18T08:18:14.655Z,101575.84
2022-10-18T08:19:16.967Z,101575.34
2022-10-18T08:20:30.404Z,101578.91
2022-10-18T08:21:33.501Z,101570.50
2022-10-18T08:22:35.746Z,101575.91
2022-10-18T08:23:38.656Z,101578.75
2022-10-18T08:24:40.807Z,101576.25
2022-10-18T08:25:42.974Z,101568.25
2022-10-18T08:26:45.108Z,101578.22
2022-10-18T08:27:47.550Z,101571.63
2022-10-18T08:28:58.345Z,101573.22
2022-10-18T08:30:12.048Z,101574.59
2022-10-18T08:31:19.775Z,101566.44
2022-10-18T08:32:21.962Z,101569.22
2022-10-18T08:33:24.188Z,101569.53
2022-10-18T08:34:26.437Z,101573.22
2022-10-18T08:35:28.601Z,101565.56
2022-10-18T08:36:30.762Z,101565.69
2022-10-18T08:37:33.441Z,101572.44
2022-10-18T08:38:37.846Z,101572.28
2022-10-18T08:39:39.991Z,101566.97
2022-10-18T08:40:44.499Z,101560.97
2022-10-18T08:42:04.039Z,101566.84
2022-10-18T08:43:21.461Z,101560.22
2022-10-18T08:44:30.237Z,101559.47
2022-10-18T08:45:42.358Z,101557.81
2022-10-18T08:46:51.137Z,101564.16
2022-10-18T08:47:57.330Z,101556.31
2022-10-18T08:49:01.848Z,101559.78
2022-10-18T08:50:14.791Z,101553.03
2022-10-18T08:51:42.455Z,101555.84
2022-10-18T08:53:17.783Z,101554.50
2022-10-18T08:54:33.663Z,101555.94
2022-10-18T08:55:42.213Z,101560.97
2022-10-18T08:56:54.340Z,101556.38
2022-10-18T08:57:58.240Z,101553.97
2022-10-18T08:59:04.180Z,101555.13
2022-10-18T09:00:26.082Z,101553.22
2022-10-18T09:01:28.364Z,101547.56
2022-10-18T09:02:52.879Z,101559.97
2022-10-18T09:04:01.394Z,101543.56
2022-10-18T09:05:24.932Z,101551.19
2022-10-18T09:06:44.658Z,101553.75
2022-10-18T09:08:11.508Z,101556.16
2022-10-18T09:09:36.928Z,101561.44
2022-10-18T09:10:53.537Z,101574.00
2022-10-18T09:12:21.033Z,101567.19
2022-10-18T09:13:42.165Z,101560.88
2022-10-18T09:15:09.481Z,101566.19
2022-10-18T09:16:16.850Z,101564.47
2022-10-18T09:17:35.350Z,101562.81
2022-10-18T09:19:02.605Z,101565.69
2022-10-18T09:20:25.268Z,101558.25
2022-10-18T09:21:38.295Z,101565.19
2022-10-18T09:23:12.506Z,101565.81
2022-10-18T09:24:26.497Z,101576.63
2022-10-18T09:25:47.097Z,101582.09
2022-10-18T09:26:54.798Z,101588.13
2022-10-18T09:28:14.227Z,101582.91
2022-10-18T09:29:46.618Z,101592.31
2022-10-18T09:30:59.802Z,101596.78
2022-10-18T09:32:44.385Z,101603.28
2022-10-18T09:34:05.386Z,101598.59
2022-10-18T09:35:16.805Z,101592.47
2022-10-18T09:36:39.007Z,101572.44
2022-10-18T09:37:43.268Z,101568.81
2022-10-18T09:38:49.255Z,101562.06
2022-10-18T09:40:00.010Z,101560.25
2022-10-18T09:41:13.461Z,101568.06
2022-10-18T09:42:27.014Z,101583.06
2022-10-18T09:43:58.847Z,101588.00
2022-10-18T09:45:08.098Z,101590.25
2022-10-18T09:46:11.339Z,101590.41
2022-10-18T09:47:21.504Z,101584.19
2022-10-18T09:48:29.577Z,101590.25
2022-10-18T09:49:42.187Z,101581.78
2022-10-18T09:50:50.937Z,101574.56
2022-10-18T09:51:54.310Z,101571.78
2022-10-18T09:53:20.992Z,101581.94
2022-10-18T09:54:42.045Z,101582.25
2022-10-18T09:56:05.348Z,101580.97
2022-10-18T09:57:15.294Z,101587.28
2022-10-18T09:58:20.559Z,101583.91
2022-10-18T09:59:40.545Z,101585.28
2022-10-18T10:00:48.399Z,101578.78
2022-10-18T10:01:50.616Z,101577.75
2022-10-18T10:02:52.976Z,101570.16
2022-10-18T10:03:55.272Z,101567.94
2022-10-18T10:04:57.681Z,101567.56
2022-10-18T10:06:11.839Z,101569.81
2022-10-18T10:07:29.891Z,101566.44
2022-10-18T10:08:35.468Z,101566.81
2022-10-18T10:10:01.684Z,101575.50
2022-10-18T10:11:04.048Z,101570.69
2022-10-18T10:12:24.780Z,101579.34
2022-10-18T10:13:27.975Z,101572.84
2022-10-18T10:14:30.783Z,101569.63
2022-10-18T10:15:37.173Z,101576.78
2022-10-18T10:16:51.506Z,101571.31
2022-10-18T10:18:01.540Z,101573.38
2022-10-18T10:19:03.624Z,101575.16
2022-10-18T10:20:20.248Z,101570.41
2022-10-18T10:21:23.389Z,101585.84
2022-10-18T10:22:36.000Z,101586.84
2022-10-18T10:23:54.789Z,101578.00
2022-10-18T10:24:57.023Z,101587.59
2022-10-18T10:26:04.981Z,101580.16
2022-10-18T10:27:17.106Z,101565.28
2022-10-18T10:28:26.528Z,101564.78
2022-10-18T10:29:46.930Z,101560.53
2022-10-18T10:30:49.332Z,101569.31
2022-10-18T10:32:04.262Z,101569.81
2022-10-18T10:33:27.003Z,101575.38
2022-10-18T10:34:29.875Z,101575.81
2022-10-18T10:35:54.278Z,101574.88
2022-10-18T10:36:56.733Z,101570.28
2022-10-18T10:37:59.191Z,101577.84
2022-10-18T10:39:12.110Z,101564.78
2022-10-18T10:40:20.276Z,101576.53
2022-10-18T10:41:24.154Z,101575.00
2022-10-18T10:42:26.505Z,101577.13
2022-10-18T10:43:40.015Z,101586.09
2022-10-18T10:44:55.061Z,101580.53
2022-10-18T10:45:59.662Z,101586.69
2022-10-18T10:47:02.243Z,101589.59
2022-10-18T10:48:16.761Z,101587.94
2022-10-18T10:49:40.266Z,101593.53
2022-10-18T10:50:55.288Z,101590.53
2022-10-18T10:52:09.246Z,101593.03
2022-10-18T10:53:52.631Z,101575.28
2022-10-18T10:55:05.683Z,101576.97
2022-10-18T10:56:28.796Z,101574.84
2022-10-18T10:57:31.868Z,101573.28
2022-10-18T10:58:37.466Z,101571.97
2022-10-18T10:59:56.229Z,101582.53
2022-10-18T11:00:58.497Z,101591.16
2022-10-18T11:02:19.090Z,101595.34
2022-10-18T11:03:29.095Z,101604.03
2022-10-18T11:04:32.415Z,101600.47
2022-10-18T11:05:43.853Z,101602.00
2022-10-18T11:06:52.000Z,101599.09
2022-10-18T11:08:02.022Z,101597.47
2022-10-18T11:09:15.686Z,101588.72
2022-10-18T11:10:22.895Z,101590.53
2022-10-18T11:11:33.290Z,101586.38
2022-10-18T11:12:47.340Z,101581.94
2022-10-18T11:14:07.224Z,101582.81
2022-10-18T11:15:26.245Z,101573.56
2022-10-18T11:16:42.637Z,101575.66
2022-10-18T11:18:08.964Z,101574.13
2022-10-18T11:19:41.064Z,101570.97
2022-10-18T11:21:08.029Z,101570.78
2022-10-18T11:22:17.193Z,101568.63
2022-10-18T11:23:19.673Z,101567.91
2022-10-18T11:24:23.285Z,101563.59
2022-10-18T11:25:53.317Z,101559.81
2022-10-18T11:27:16.767Z,101561.06
2022-10-18T11:28:28.716Z,101554.94
2022-10-18T11:30:08.082Z,101553.41
2022-10-18T11:31:35.812Z,101556.63
2022-10-18T11:33:12.078Z,101549.84
2022-10-18T11:34:32.378Z,101550.50
2022-10-18T11:35:49.830Z,101547.00
2022-10-18T11:37:02.297Z,101551.38
2022-10-18T11:38:42.375Z,101548.38
2022-10-18T11:40:10.505Z,101558.38
2022-10-18T11:41:30.891Z,101561.66
2022-10-18T11:42:35.665Z,101554.28
2022-10-18T11:44:01.599Z,101544.69
2022-10-18T11:46:53.781Z,101551.50
2022-10-18T11:48:04.710Z,101557.22
2022-10-18T11:49:30.155Z,101552.53
2022-10-18T11:50:50.981Z,101560.41
2022-10-18T11:52:07.433Z,101566.13
2022-10-18T11:53:22.883Z,101561.88
2022-10-18T11:54:46.097Z,101554.63
2022-10-18T11:55:56.810Z,101557.84
2022-10-18T11:57:26.516Z,101564.47
2022-10-18T11:58:31.491Z,101557.41
2022-10-18T12:00:11.780Z,101556.41
2022-10-18T12:01:28.499Z,101558.25
2022-10-18T12:02:49.196Z,101552.19
2022-10-18T12:04:49.037Z,101557.13
2022-10-18T12:06:14.891Z,101552.47
2022-10-18T12:07:26.791Z,101559.81
2022-10-18T12:08:43.862Z,101547.88
2022-10-18T12:11:06.026Z,101550.69
2022-10-18T12:12:23.050Z,101547.44
2022-10-18T12:13:44.080Z,101549.97
2022-10-18T12:14:55.185Z,101556.03
2022-10-18T12:15:57.774Z,101554.50
2022-10-18T12:17:39.816Z,101555.94
2022-10-18T12:18:30.688Z,101566.00
2022-10-18T12:19:35.510Z,101568.56
2022-10-18T12:20:47.017Z,101564.91
2022-10-18T12:21:49.735Z,101572.88
2022-10-18T12:23:01.891Z,101566.38
2022-10-18T12:24:16.046Z,101569.78
2022-10-18T12:25:19.102Z,101572.50
2022-10-18T12:26:22.677Z,101570.81
2022-10-18T12:27:53.273Z,101568.03
2022-10-18T12:29:08.506Z,101566.28
2022-10-18T12:30:58.639Z,101569.88
2022-10-18T12:32:11.263Z,101562.13
2022-10-18T12:33:33.723Z,101554.75
2022-10-18T12:34:53.882Z,101559.97
2022-10-18T12:36:20.074Z,101561.81
2022-10-18T12:37:31.553Z,101560.28
2022-10-18T12:38:37.852Z,101557.22
2022-10-18T12:40:11.472Z,101558.81
2022-10-18T12:41:22.931Z,101555.78
2022-10-18T12:42:31.178Z,101566.50
2022-10-18T12:43:37.991Z,101552.84
2022-10-18T12:44:40.195Z,101558.19
2022-10-18T12:45:52.796Z,101557.94
2022-10-18T12:46:58.161Z,101545.94
2022-10-18T12:48:07.538Z,101553.97
2022-10-18T12:49:12.246Z,101548.31
2022-10-18T12:50:23.299Z,101546.72
2022-10-18T12:51:25.535Z,101541.78
2022-10-18T12:52:31.938Z,101541.66
2022-10-18T12:53:35.150Z,101534.84
2022-10-18T12:54:39.614Z,101539.63
2022-10-18T12:55:45.291Z,101545.38
2022-10-18T12:56:47.720Z,101544.91
2022-10-18T12:57:52.940Z,101549.13
2022-10-18T12:59:14.056Z,101546.41